sensor_id;sensor_type;location;lat;lon;timestamp;pressure;altitude;pressure_sealevel;temperature;humidity
18755;BME280;35061;47.664;9.166;2022-07-29T00:00:01;101503.33;;;20.98;67.61
18755;BME280;35061;47.664;9.166;2022-07-29T00:02:30;101508.85;;;20.83;67.95
18755;BME280;35061;47.664;9.166;2022-07-29T00:04:59;101510.85;;;20.69;68.25
18755;BME280;35061;47.664;9.166;2022-07-29T00:07:27;101503.03;;;20.58;68.51
18755;BME280;35061;47.664;9.166;2022-07-29T00:09:55;101507.91;;;20.49;68.93
18755;BME280;35061;47.664;9.166;2022-07-29T00:12:24;101503.82;;;20.39;69.19
18755;BME280;35061;47.664;9.166;2022-07-29T00:14:54;101505.23;;;20.32;69.73
18755;BME280;35061;47.664;9.166;2022-07-29T00:17:23;101512.06;;;20.35;70.04
18755;BME280;35061;47.664;9.166;2022-07-29T00:19:51;101499.66;;;20.34;69.93
18755;BME280;35061;47.664;9.166;2022-07-29T00:22:19;101491.00;;;20.29;70.13
18755;BME280;35061;47.664;9.166;2022-07-29T00:24:48;101487.83;;;20.27;70.43
18755;BME280;35061;47.664;9.166;2022-07-29T00:27:17;101486.03;;;20.24;70.60
18755;BME280;35061;47.664;9.166;2022-07-29T00:29:45;101492.57;;;20.30;71.34
18755;BME280;35061;47.664;9.166;2022-07-29T00:32:12;101490.22;;;20.28;70.91
18755;BME280;35061;47.664;9.166;2022-07-29T00:34:40;101488.58;;;20.33;71.58
18755;BME280;35061;47.664;9.166;2022-07-29T00:37:26;101488.58;;;20.33;71.29
18755;BME280;35061;47.664;9.166;2022-07-29T00:39:54;101484.63;;;20.30;71.31
18755;BME280;35061;47.664;9.166;2022-07-29T00:42:22;101484.69;;;20.25;71.42
18755;BME280;35061;47.664;9.166;2022-07-29T00:44:50;101468.90;;;20.20;71.36
18755;BME280;35061;47.664;9.166;2022-07-29T00:47:17;101477.86;;;20.22;71.83
18755;BME280;35061;47.664;9.166;2022-07-29T00:49:45;101476.05;;;20.38;71.88
18755;BME280;35061;47.664;9.166;2022-07-29T00:52:13;101468.08;;;20.44;71.83
18755;BME280;35061;47.664;9.166;2022-07-29T00:54:42;101470.89;;;20.50;72.19
18755;BME280;35061;47.664;9.166;2022-07-29T00:57:11;101462.55;;;20.60;71.78
18755;BME280;35061;47.664;9.166;2022-07-29T00:59:40;101462.32;;;20.77;71.48
18755;BME280;35061;47.664;9.166;2022-07-29T01:02:07;101465.66;;;20.87;71.11
18755;BME280;35061;47.664;9.166;2022-07-29T01:04:35;101467.95;;;20.94;71.00
18755;BME280;35061;47.664;9.166;2022-07-29T01:07:03;101463.70;;;20.95;70.72
18755;BME280;35061;47.664;9.166;2022-07-29T01:09:32;101467.00;;;20.86;70.72
18755;BME280;35061;47.664;9.166;2022-07-29T01:12:15;101463.99;;;20.72;70.91
18755;BME280;35061;47.664;9.166;2022-07-29T01:14:45;101464.45;;;20.76;71.41
18755;BME280;35061;47.664;9.166;2022-07-29T01:17:36;101455.95;;;20.78;70.92
18755;BME280;35061;47.664;9.166;2022-07-29T01:20:31;101450.06;;;20.65;71.34
18755;BME280;35061;47.664;9.166;2022-07-29T01:26:00;101447.61;;;20.31;72.21
18755;BME280;35061;47.664;9.166;2022-07-29T01:28:52;101450.98;;;20.16;72.08
18755;BME280;35061;47.664;9.166;2022-07-29T01:31:35;101453.23;;;20.04;73.05
18755;BME280;35061;47.664;9.166;2022-07-29T01:34:31;101449.90;;;19.94;72.89
18755;BME280;35061;47.664;9.166;2022-07-29T01:39:36;101435.54;;;19.77;73.48
18755;BME280;35061;47.664;9.166;2022-07-29T01:42:15;101441.72;;;19.67;73.81
18755;BME280;35061;47.664;9.166;2022-07-29T01:47:42;101428.94;;;19.51;74.60
18755;BME280;35061;47.664;9.166;2022-07-29T01:50:13;101426.32;;;19.48;74.57
18755;BME280;35061;47.664;9.166;2022-07-29T01:52:53;101428.19;;;19.45;74.71
18755;BME280;35061;47.664;9.166;2022-07-29T01:55:26;101428.25;;;19.39;75.20
18755;BME280;35061;47.664;9.166;2022-07-29T01:57:57;101427.70;;;19.41;75.49
18755;BME280;35061;47.664;9.166;2022-07-29T02:00:27;101428.71;;;19.49;75.50
18755;BME280;35061;47.664;9.166;2022-07-29T02:02:55;101429.46;;;19.50;75.89
18755;BME280;35061;47.664;9.166;2022-07-29T02:05:26;101427.10;;;19.48;75.77
18755;BME280;35061;47.664;9.166;2022-07-29T02:07:57;101428.19;;;19.45;76.26
18755;BME280;35061;47.664;9.166;2022-07-29T02:10:28;101434.10;;;19.34;76.43
18755;BME280;35061;47.664;9.166;2022-07-29T02:12:58;101432.56;;;19.27;76.59
18755;BME280;35061;47.664;9.166;2022-07-29T02:15:28;101441.76;;;19.31;77.00
18755;BME280;35061;47.664;9.166;2022-07-29T02:18:02;101439.89;;;19.34;77.79
18755;BME280;35061;47.664;9.166;2022-07-29T02:20:33;101440.15;;;19.36;77.28
18755;BME280;35061;47.664;9.166;2022-07-29T02:23:01;101438.52;;;19.41;77.61
18755;BME280;35061;47.664;9.166;2022-07-29T02:25:30;101431.20;;;19.34;77.18
18755;BME280;35061;47.664;9.166;2022-07-29T02:28:07;101433.38;;;19.22;77.54
18755;BME280;35061;47.664;9.166;2022-07-29T02:30:40;101434.69;;;19.27;78.19
18755;BME280;35061;47.664;9.166;2022-07-29T02:33:12;101437.02;;;19.34;77.40
18755;BME280;35061;47.664;9.166;2022-07-29T02:35:41;101437.34;;;19.24;77.25
18755;BME280;35061;47.664;9.166;2022-07-29T02:38:14;101432.11;;;19.23;77.08
18755;BME280;35061;47.664;9.166;2022-07-29T02:41:04;101435.58;;;19.16;77.16
18755;BME280;35061;47.664;9.166;2022-07-29T02:43:34;101433.02;;;19.06;77.12
18755;BME280;35061;47.664;9.166;2022-07-29T02:46:05;101434.37;;;19.00;77.13
18755;BME280;35061;47.664;9.166;2022-07-29T02:49:04;101438.62;;;18.93;77.61
18755;BME280;35061;47.664;9.166;2022-07-29T02:51:43;101434.73;;;18.85;77.63
18755;BME280;35061;47.664;9.166;2022-07-29T02:54:41;101441.88;;;18.78;77.90
18755;BME280;35061;47.664;9.166;2022-07-29T02:57:22;101431.91;;;18.73;78.01
18755;BME280;35061;47.664;9.166;2022-07-29T02:59:57;101426.91;;;18.68;78.14
18755;BME280;35061;47.664;9.166;2022-07-29T03:02:27;101427.92;;;18.76;78.66
18755;BME280;35061;47.664;9.166;2022-07-29T03:04:57;101437.96;;;18.75;78.67
18755;BME280;35061;47.664;9.166;2022-07-29T03:07:27;101436.36;;;18.74;78.63
18755;BME280;35061;47.664;9.166;2022-07-29T03:09:56;101449.05;;;18.71;78.35
18755;BME280;35061;47.664;9.166;2022-07-29T03:12:24;101442.24;;;18.63;78.50
18755;BME280;35061;47.664;9.166;2022-07-29T03:14:53;101436.23;;;18.55;78.50
18755;BME280;35061;47.664;9.166;2022-07-29T03:17:21;101446.30;;;18.48;78.78
18755;BME280;35061;47.664;9.166;2022-07-29T03:19:49;101448.85;;;18.58;79.17
18755;BME280;35061;47.664;9.166;2022-07-29T03:22:17;101441.23;;;18.54;78.77
18755;BME280;35061;47.664;9.166;2022-07-29T03:24:45;101448.62;;;18.50;78.77
18755;BME280;35061;47.664;9.166;2022-07-29T03:27:13;101446.30;;;18.42;78.86
18755;BME280;35061;47.664;9.166;2022-07-29T03:29:41;101432.14;;;18.33;79.03
18755;BME280;35061;47.664;9.166;2022-07-29T03:32:15;101441.88;;;18.24;79.44
18755;BME280;35061;47.664;9.166;2022-07-29T03:34:50;101439.30;;;18.15;79.90
18755;BME280;35061;47.664;9.166;2022-07-29T03:37:18;101437.73;;;18.08;80.12
18755;BME280;35061;47.664;9.166;2022-07-29T03:39:47;101440.91;;;18.05;81.00
18755;BME280;35061;47.664;9.166;2022-07-29T03:42:16;101443.52;;;18.03;81.84
18755;BME280;35061;47.664;9.166;2022-07-29T03:44:47;101445.65;;;18.13;82.66
18755;BME280;35061;47.664;9.166;2022-07-29T03:47:18;101442.15;;;18.26;82.00
18755;BME280;35061;47.664;9.166;2022-07-29T03:50:11;101443.39;;;18.48;83.06
18755;BME280;35061;47.664;9.166;2022-07-29T03:52:40;101433.87;;;18.53;81.81
18755;BME280;35061;47.664;9.166;2022-07-29T03:55:11;101433.87;;;18.53;81.63
18755;BME280;35061;47.664;9.166;2022-07-29T03:57:39;101436.52;;;18.51;81.96
18755;BME280;35061;47.664;9.166;2022-07-29T04:00:08;101437.57;;;18.54;81.58
18755;BME280;35061;47.664;9.166;2022-07-29T04:02:37;101446.79;;;18.52;81.50
18755;BME280;35061;47.664;9.166;2022-07-29T04:05:11;101453.36;;;18.59;81.59
18755;BME280;35061;47.664;9.166;2022-07-29T04:07:43;101457.52;;;18.63;81.75
18755;BME280;35061;47.664;9.166;2022-07-29T04:10:11;101463.80;;;18.73;81.93
18755;BME280;35061;47.664;9.166;2022-07-29T04:12:39;101456.08;;;18.87;80.77
18755;BME280;35061;47.664;9.166;2022-07-29T04:15:07;101451.30;;;18.90;80.79
18755;BME280;35061;47.664;9.166;2022-07-29T04:17:36;101451.76;;;19.05;80.06
18755;BME280;35061;47.664;9.166;2022-07-29T04:20:04;101453.85;;;19.05;79.75
18755;BME280;35061;47.664;9.166;2022-07-29T04:22:32;101455.98;;;19.04;79.94
18755;BME280;35061;47.664;9.166;2022-07-29T04:25:00;101462.06;;;19.01;79.53
18755;BME280;35061;47.664;9.166;2022-07-29T04:27:29;101459.48;;;18.91;79.59
18755;BME280;35061;47.664;9.166;2022-07-29T04:29:57;101465.30;;;18.86;79.67
18755;BME280;35061;47.664;9.166;2022-07-29T04:32:25;101471.67;;;18.78;79.69
18755;BME280;35061;47.664;9.166;2022-07-29T04:34:53;101475.41;;;18.73;79.84
18755;BME280;35061;47.664;9.166;2022-07-29T04:37:21;101471.51;;;18.65;80.05
18755;BME280;35061;47.664;9.166;2022-07-29T04:39:49;101474.20;;;18.57;80.49
18755;BME280;35061;47.664;9.166;2022-07-29T04:42:16;101473.93;;;18.55;80.52
18755;BME280;35061;47.664;9.166;2022-07-29T04:44:52;101471.02;;;18.55;81.21
18755;BME280;35061;47.664;9.166;2022-07-29T04:47:20;101465.98;;;18.61;81.22
18755;BME280;35061;47.664;9.166;2022-07-29T04:49:48;101462.81;;;18.59;81.06
18755;BME280;35061;47.664;9.166;2022-07-29T04:52:16;101468.11;;;18.61;81.24
18755;BME280;35061;47.664;9.166;2022-07-29T04:54:43;101470.63;;;18.81;81.94
18755;BME280;35061;47.664;9.166;2022-07-29T04:57:11;101473.93;;;18.97;81.12
18755;BME280;35061;47.664;9.166;2022-07-29T04:59:39;101482.70;;;18.91;81.14
18755;BME280;35061;47.664;9.166;2022-07-29T05:02:06;101476.65;;;18.89;81.18
18755;BME280;35061;47.664;9.166;2022-07-29T05:04:34;101476.12;;;18.85;81.14
18755;BME280;35061;47.664;9.166;2022-07-29T05:07:02;101474.03;;;18.86;81.15
18755;BME280;35061;47.664;9.166;2022-07-29T05:09:29;101484.33;;;18.81;81.43
18755;BME280;35061;47.664;9.166;2022-07-29T05:11:59;101474.59;;;18.78;81.59
18755;BME280;35061;47.664;9.166;2022-07-29T05:14:27;101485.90;;;18.82;81.70
18755;BME280;35061;47.664;9.166;2022-07-29T05:16:55;101477.23;;;18.76;81.86
18755;BME280;35061;47.664;9.166;2022-07-29T05:19:24;101479.55;;;18.83;82.20
18755;BME280;35061;47.664;9.166;2022-07-29T05:21:52;101469.55;;;18.85;81.68
18755;BME280;35061;47.664;9.166;2022-07-29T05:24:19;101474.45;;;18.95;82.26
18755;BME280;35061;47.664;9.166;2022-07-29T05:26:47;101474.16;;;19.05;81.54
18755;BME280;35061;47.664;9.166;2022-07-29T05:29:15;101473.02;;;19.19;81.54
18755;BME280;35061;47.664;9.166;2022-07-29T05:32:03;101472.98;;;19.25;81.20
18755;BME280;35061;47.664;9.166;2022-07-29T05:34:31;101477.40;;;19.32;81.09
18755;BME280;35061;47.664;9.166;2022-07-29T05:36:59;101486.12;;;19.32;81.10
18755;BME280;35061;47.664;9.166;2022-07-29T05:39:27;101473.96;;;19.33;80.92
18755;BME280;35061;47.664;9.166;2022-07-29T05:42:14;101470.07;;;19.25;80.89
18755;BME280;35061;47.664;9.166;2022-07-29T05:44:42;101475.08;;;19.24;80.86
18755;BME280;35061;47.664;9.166;2022-07-29T05:47:10;101484.30;;;19.29;80.84
18755;BME280;35061;47.664;9.166;2022-07-29T05:49:37;101479.26;;;19.29;80.72
18755;BME280;35061;47.664;9.166;2022-07-29T05:52:05;101470.07;;;19.25;80.76
18755;BME280;35061;47.664;9.166;2022-07-29T05:54:34;101464.52;;;19.27;80.82
18755;BME280;35061;47.664;9.166;2022-07-29T05:57:02;101472.33;;;19.38;81.26
18755;BME280;35061;47.664;9.166;2022-07-29T05:59:30;101472.88;;;19.36;80.94
18755;BME280;35061;47.664;9.166;2022-07-29T06:01:58;101467.06;;;19.36;80.94
18755;BME280;35061;47.664;9.166;2022-07-29T06:04:26;101471.55;;;19.37;80.84
18755;BME280;35061;47.664;9.166;2022-07-29T06:06:54;101474.95;;;19.42;81.06
18755;BME280;35061;47.664;9.166;2022-07-29T06:09:22;101473.12;;;19.38;81.11
18755;BME280;35061;47.664;9.166;2022-07-29T06:11:50;101470.99;;;19.45;81.43
18755;BME280;35061;47.664;9.166;2022-07-29T06:14:18;101484.30;;;19.59;81.09
18755;BME280;35061;47.664;9.166;2022-07-29T06:16:45;101488.55;;;19.58;81.04
18755;BME280;35061;47.664;9.166;2022-07-29T06:19:13;101491.20;;;19.56;81.08
18755;BME280;35061;47.664;9.166;2022-07-29T06:21:42;101489.30;;;19.59;81.01
18755;BME280;35061;47.664;9.166;2022-07-29T06:24:14;101490.94;;;19.54;81.07
18755;BME280;35061;47.664;9.166;2022-07-29T06:26:43;101493.29;;;19.56;81.12
18755;BME280;35061;47.664;9.166;2022-07-29T06:29:11;101501.50;;;19.57;81.12
18755;BME280;35061;47.664;9.166;2022-07-29T06:31:39;101504.12;;;19.61;81.15
18755;BME280;35061;47.664;9.166;2022-07-29T06:34:07;101492.47;;;19.61;81.19
18755;BME280;35061;47.664;9.166;2022-07-29T06:36:36;101498.23;;;19.66;81.12
18755;BME280;35061;47.664;9.166;2022-07-29T06:39:08;101503.49;;;19.68;81.31
18755;BME280;35061;47.664;9.166;2022-07-29T06:41:37;101502.09;;;19.75;81.23
18755;BME280;35061;47.664;9.166;2022-07-29T06:44:05;101517.36;;;19.81;81.14
18755;BME280;35061;47.664;9.166;2022-07-29T06:46:33;101514.71;;;19.83;81.14
18755;BME280;35061;47.664;9.166;2022-07-29T06:49:01;101519.45;;;19.86;81.32
18755;BME280;35061;47.664;9.166;2022-07-29T06:51:29;101517.78;;;19.91;81.37
18755;BME280;35061;47.664;9.166;2022-07-29T06:53:57;101513.27;;;19.96;81.13
18755;BME280;35061;47.664;9.166;2022-07-29T06:56:38;101507.74;;;19.98;81.05
18755;BME280;35061;47.664;9.166;2022-07-29T06:59:09;101509.77;;;20.03;80.92
18755;BME280;35061;47.664;9.166;2022-07-29T07:01:39;101516.64;;;20.05;80.81
18755;BME280;35061;47.664;9.166;2022-07-29T07:04:10;101518.50;;;20.03;80.61
18755;BME280;35061;47.664;9.166;2022-07-29T07:06:39;101516.93;;;20.02;80.74
18755;BME280;35061;47.664;9.166;2022-07-29T07:09:07;101525.04;;;20.09;80.67
18755;BME280;35061;47.664;9.166;2022-07-29T07:11:34;101527.40;;;20.11;80.96
18755;BME280;35061;47.664;9.166;2022-07-29T07:14:02;101536.68;;;20.09;81.30
18755;BME280;35061;47.664;9.166;2022-07-29T07:16:31;101535.90;;;20.08;81.67
18755;BME280;35061;47.664;9.166;2022-07-29T07:18:59;101548.26;;;20.15;81.27
18755;BME280;35061;47.664;9.166;2022-07-29T07:21:27;101554.83;;;20.15;81.45
18755;BME280;35061;47.664;9.166;2022-07-29T07:23:56;101554.08;;;20.15;81.42
18755;BME280;35061;47.664;9.166;2022-07-29T07:26:24;101560.88;;;20.17;81.31
18755;BME280;35061;47.664;9.166;2022-07-29T07:28:52;101547.70;;;20.16;81.29
18755;BME280;35061;47.664;9.166;2022-07-29T07:31:20;101551.34;;;20.22;81.17
18755;BME280;35061;47.664;9.166;2022-07-29T07:33:48;101567.91;;;20.28;81.07
18755;BME280;35061;47.664;9.166;2022-07-29T07:36:15;101563.20;;;20.25;81.25
18755;BME280;35061;47.664;9.166;2022-07-29T07:38:43;101567.98;;;20.22;81.27
18755;BME280;35061;47.664;9.166;2022-07-29T07:41:11;101582.73;;;20.30;81.15
18755;BME280;35061;47.664;9.166;2022-07-29T07:43:39;101578.70;;;20.33;82.28
18755;BME280;35061;47.664;9.166;2022-07-29T07:46:06;101582.40;;;20.33;80.88
18755;BME280;35061;47.664;9.166;2022-07-29T07:48:34;101577.92;;;20.32;80.51
18755;BME280;35061;47.664;9.166;2022-07-29T07:51:03;101570.01;;;20.33;80.36
18755;BME280;35061;47.664;9.166;2022-07-29T07:53:31;101574.16;;;20.38;80.21
18755;BME280;35061;47.664;9.166;2022-07-29T07:55:59;101570.59;;;20.50;80.04
18755;BME280;35061;47.664;9.166;2022-07-29T07:58:42;101568.47;;;20.70;79.67
18755;BME280;35061;47.664;9.166;2022-07-29T08:01:10;101567.98;;;20.91;78.93
18755;BME280;35061;47.664;9.166;2022-07-29T08:03:38;101572.06;;;21.01;78.12
18755;BME280;35061;47.664;9.166;2022-07-29T08:06:06;101572.26;;;21.09;77.52
18755;BME280;35061;47.664;9.166;2022-07-29T08:08:34;101577.92;;;21.21;77.05
18755;BME280;35061;47.664;9.166;2022-07-29T08:11:01;101567.42;;;21.31;76.76
18755;BME280;35061;47.664;9.166;2022-07-29T08:13:36;101560.09;;;21.43;75.82
18755;BME280;35061;47.664;9.166;2022-07-29T08:16:05;101565.49;;;21.53;75.42
18755;BME280;35061;47.664;9.166;2022-07-29T08:18:40;101556.44;;;21.56;73.90
18755;BME280;35061;47.664;9.166;2022-07-29T08:21:09;101564.74;;;21.66;73.78
18755;BME280;35061;47.664;9.166;2022-07-29T08:23:41;101557.19;;;21.76;73.69
18755;BME280;35061;47.664;9.166;2022-07-29T08:26:19;101555.42;;;21.86;73.54
18755;BME280;35061;47.664;9.166;2022-07-29T08:28:49;101544.89;;;21.97;73.50
18755;BME280;35061;47.664;9.166;2022-07-29T08:31:18;101555.35;;;22.06;73.34
18755;BME280;35061;47.664;9.166;2022-07-29T08:33:45;101554.67;;;22.13;73.09
18755;BME280;35061;47.664;9.166;2022-07-29T08:36:13;101548.20;;;22.20;72.97
18755;BME280;35061;47.664;9.166;2022-07-29T08:38:41;101550.98;;;22.26;72.60
18755;BME280;35061;47.664;9.166;2022-07-29T08:41:09;101552.77;;;22.29;72.47
18755;BME280;35061;47.664;9.166;2022-07-29T08:43:36;101553.03;;;22.31;72.25
18755;BME280;35061;47.664;9.166;2022-07-29T08:46:05;101557.74;;;22.34;72.14
18755;BME280;35061;47.664;9.166;2022-07-29T08:48:33;101565.88;;;22.36;72.02
18755;BME280;35061;47.664;9.166;2022-07-29T08:51:01;101565.88;;;22.36;71.60
18755;BME280;35061;47.664;9.166;2022-07-29T08:53:30;101565.36;;;22.37;71.42
18755;BME280;35061;47.664;9.166;2022-07-29T08:55:59;101572.20;;;22.40;71.47
18755;BME280;35061;47.664;9.166;2022-07-29T08:58:31;101567.95;;;22.41;71.41
18755;BME280;35061;47.664;9.166;2022-07-29T09:01:02;101585.44;;;22.41;71.05
18755;BME280;35061;47.664;9.166;2022-07-29T09:03:38;101585.99;;;22.39;71.20
18755;BME280;35061;47.664;9.166;2022-07-29T09:06:07;101597.67;;;22.39;71.06
18755;BME280;35061;47.664;9.166;2022-07-29T09:08:35;101600.02;;;22.41;71.09
18755;BME280;35061;47.664;9.166;2022-07-29T09:11:03;101601.37;;;22.40;70.49
18755;BME280;35061;47.664;9.166;2022-07-29T09:13:31;101596.66;;;22.37;69.92
18755;BME280;35061;47.664;9.166;2022-07-29T09:15:59;101595.64;;;22.34;69.54
18755;BME280;35061;47.664;9.166;2022-07-29T09:18:41;101594.07;;;22.33;69.13
18755;BME280;35061;47.664;9.166;2022-07-29T09:21:15;101601.01;;;22.30;68.63
18755;BME280;35061;47.664;9.166;2022-07-29T09:24:09;101600.35;;;22.24;67.99
18755;BME280;35061;47.664;9.166;2022-07-29T09:26:41;101606.17;;;22.24;67.74
18755;BME280;35061;47.664;9.166;2022-07-29T09:29:19;101616.27;;;22.23;67.93
18755;BME280;35061;47.664;9.166;2022-07-29T09:31:50;101602.02;;;22.19;67.51
18755;BME280;35061;47.664;9.166;2022-07-29T09:34:26;101604.24;;;22.13;67.93
18755;BME280;35061;47.664;9.166;2022-07-29T09:36:55;101601.20;;;22.05;68.09
18755;BME280;35061;47.664;9.166;2022-07-29T09:39:39;101608.16;;;22.02;68.67
18755;BME280;35061;47.664;9.166;2022-07-29T09:42:13;101611.73;;;21.95;69.35
18755;BME280;35061;47.664;9.166;2022-07-29T09:44:47;101605.22;;;21.88;69.57
18755;BME280;35061;47.664;9.166;2022-07-29T09:47:17;101593.09;;;21.84;70.28
18755;BME280;35061;47.664;9.166;2022-07-29T09:49:56;101596.10;;;21.79;70.53
18755;BME280;35061;47.664;9.166;2022-07-29T09:52:29;101599.56;;;21.77;70.79
18755;BME280;35061;47.664;9.166;2022-07-29T09:55:08;101602.25;;;21.75;70.98
18755;BME280;35061;47.664;9.166;2022-07-29T09:57:43;101599.34;;;21.75;71.76
18755;BME280;35061;47.664;9.166;2022-07-29T10:00:17;101596.43;;;21.75;72.00
18755;BME280;35061;47.664;9.166;2022-07-29T10:02:46;101591.95;;;21.74;72.08
18755;BME280;35061;47.664;9.166;2022-07-29T10:05:18;101597.31;;;21.70;71.82
18755;BME280;35061;47.664;9.166;2022-07-29T10:07:55;101594.70;;;21.66;72.05
18755;BME280;35061;47.664;9.166;2022-07-29T10:10:28;101592.24;;;21.70;72.00
18755;BME280;35061;47.664;9.166;2022-07-29T10:13:01;101590.15;;;21.71;71.87
18755;BME280;35061;47.664;9.166;2022-07-29T10:15:37;101589.59;;;21.72;70.52
18755;BME280;35061;47.664;9.166;2022-07-29T10:18:12;101579.26;;;21.71;69.00
18755;BME280;35061;47.664;9.166;2022-07-29T10:20:41;101578.05;;;21.80;68.36
18755;BME280;35061;47.664;9.166;2022-07-29T10:23:09;101580.57;;;21.89;68.34
18755;BME280;35061;47.664;9.166;2022-07-29T10:25:36;101574.52;;;22.01;68.45
18755;BME280;35061;47.664;9.166;2022-07-29T10:28:05;101584.30;;;22.17;68.03
18755;BME280;35061;47.664;9.166;2022-07-29T10:30:33;101563.10;;;22.30;67.43
18755;BME280;35061;47.664;9.166;2022-07-29T10:41:06;101558.40;;;22.67;65.55
18755;BME280;35061;47.664;9.166;2022-07-29T10:44:06;101565.59;;;22.66;64.71
18755;BME280;35061;47.664;9.166;2022-07-29T10:46:43;101555.91;;;22.71;65.46
18755;BME280;35061;47.664;9.166;2022-07-29T10:49:19;101559.31;;;22.76;64.69
18755;BME280;35061;47.664;9.166;2022-07-29T10:54:42;101546.69;;;22.94;64.86
18755;BME280;35061;47.664;9.166;2022-07-29T10:59:45;101545.64;;;23.05;64.69
18755;BME280;35061;47.664;9.166;2022-07-29T11:05:12;101541.46;;;23.14;63.12
18755;BME280;35061;47.664;9.166;2022-07-29T11:10:50;101527.16;;;23.24;63.20
18755;BME280;35061;47.664;9.166;2022-07-29T11:16:15;101530.83;;;23.59;61.81
18755;BME280;35061;47.664;9.166;2022-07-29T11:21:41;101535.37;;;23.89;61.74
18755;BME280;35061;47.664;9.166;2022-07-29T11:24:25;101525.60;;;24.08;61.74
18755;BME280;35061;47.664;9.166;2022-07-29T11:27:16;101519.45;;;24.19;58.99
18755;BME280;35061;47.664;9.166;2022-07-29T11:29:49;101519.29;;;24.25;60.17
18755;BME280;35061;47.664;9.166;2022-07-29T11:32:19;101508.79;;;24.30;59.86
18755;BME280;35061;47.664;9.166;2022-07-29T11:35:13;101510.75;;;24.35;59.98
18755;BME280;35061;47.664;9.166;2022-07-29T11:37:47;101510.03;;;24.50;58.87
18755;BME280;35061;47.664;9.166;2022-07-29T11:40:31;101513.99;;;24.60;58.85
18755;BME280;35061;47.664;9.166;2022-07-29T11:42:59;101516.97;;;24.68;56.87
18755;BME280;35061;47.664;9.166;2022-07-29T11:45:46;101522.63;;;24.74;57.58
18755;BME280;35061;47.664;9.166;2022-07-29T11:48:16;101520.37;;;24.80;56.49
18755;BME280;35061;47.664;9.166;2022-07-29T11:50:58;101520.37;;;24.80;57.54
18755;BME280;35061;47.664;9.166;2022-07-29T11:53:26;101519.19;;;24.83;57.74
18755;BME280;35061;47.664;9.166;2022-07-29T11:55:59;101518.83;;;24.87;57.83
18755;BME280;35061;47.664;9.166;2022-07-29T11:58:29;101509.48;;;24.88;57.84
18755;BME280;35061;47.664;9.166;2022-07-29T12:00:57;101520.01;;;24.91;57.96
18755;BME280;35061;47.664;9.166;2022-07-29T12:03:30;101508.92;;;24.98;58.11
18755;BME280;35061;47.664;9.166;2022-07-29T12:06:12;101513.59;;;25.01;57.96
18755;BME280;35061;47.664;9.166;2022-07-29T12:08:46;101515.72;;;25.00;57.47
18755;BME280;35061;47.664;9.166;2022-07-29T12:11:18;101515.36;;;25.04;57.90
18755;BME280;35061;47.664;9.166;2022-07-29T12:13:52;101513.04;;;25.10;57.66
18755;BME280;35061;47.664;9.166;2022-07-29T12:16:20;101500.16;;;25.13;57.32
18755;BME280;35061;47.664;9.166;2022-07-29T12:18:59;101505.26;;;25.20;57.21
18755;BME280;35061;47.664;9.166;2022-07-29T12:21:29;101509.73;;;25.21;57.07
18755;BME280;35061;47.664;9.166;2022-07-29T12:23:57;101500.35;;;25.15;57.62
18755;BME280;35061;47.664;9.166;2022-07-29T12:26:35;101492.15;;;25.14;58.13
18755;BME280;35061;47.664;9.166;2022-07-29T12:29:02;101498.39;;;25.10;58.13
18755;BME280;35061;47.664;9.166;2022-07-29T12:31:40;101495.84;;;25.06;57.96
18755;BME280;35061;47.664;9.166;2022-07-29T12:34:12;101496.82;;;25.09;58.05
18755;BME280;35061;47.664;9.166;2022-07-29T12:36:41;101502.09;;;25.03;58.34
18755;BME280;35061;47.664;9.166;2022-07-29T12:39:10;101500.12;;;24.98;58.59
18755;BME280;35061;47.664;9.166;2022-07-29T12:41:38;101500.09;;;24.90;59.16
18755;BME280;35061;47.664;9.166;2022-07-29T12:44:06;101496.56;;;24.84;59.76
18755;BME280;35061;47.664;9.166;2022-07-29T12:46:34;101498.69;;;24.83;60.29
18755;BME280;35061;47.664;9.166;2022-07-29T12:49:04;101492.02;;;24.75;60.71
18755;BME280;35061;47.664;9.166;2022-07-29T12:51:36;101488.09;;;24.64;61.24
18755;BME280;35061;47.664;9.166;2022-07-29T12:54:10;101486.45;;;24.56;61.56
18755;BME280;35061;47.664;9.166;2022-07-29T12:56:39;101485.45;;;24.45;61.91
18755;BME280;35061;47.664;9.166;2022-07-29T12:59:21;101485.64;;;24.47;61.93
18755;BME280;35061;47.664;9.166;2022-07-29T13:01:51;101488.19;;;24.51;62.12
18755;BME280;35061;47.664;9.166;2022-07-29T13:04:30;101496.98;;;24.51;62.25
18755;BME280;35061;47.664;9.166;2022-07-29T13:09:41;101496.20;;;24.50;62.33
18755;BME280;35061;47.664;9.166;2022-07-29T13:12:12;101502.64;;;24.49;62.62
18755;BME280;35061;47.664;9.166;2022-07-29T13:14:44;101501.47;;;24.52;62.67
18755;BME280;35061;47.664;9.166;2022-07-29T13:17:20;101495.05;;;24.53;62.86
18755;BME280;35061;47.664;9.166;2022-07-29T13:19:50;101501.10;;;24.56;63.02
18755;BME280;35061;47.664;9.166;2022-07-29T13:22:20;101505.36;;;24.47;62.97
18755;BME280;35061;47.664;9.166;2022-07-29T13:24:54;101508.46;;;24.41;63.35
18755;BME280;35061;47.664;9.166;2022-07-29T13:27:24;101509.77;;;24.32;63.51
18755;BME280;35061;47.664;9.166;2022-07-29T13:29:54;101505.65;;;24.28;63.67
18755;BME280;35061;47.664;9.166;2022-07-29T13:32:25;101510.30;;;24.23;63.81
18755;BME280;35061;47.664;9.166;2022-07-29T13:34:59;101504.64;;;24.25;63.72
18755;BME280;35061;47.664;9.166;2022-07-29T13:37:30;101500.78;;;24.30;63.71
18755;BME280;35061;47.664;9.166;2022-07-29T13:40:02;101499.41;;;24.31;63.66
18755;BME280;35061;47.664;9.166;2022-07-29T13:42:31;101497.25;;;24.24;63.50
18755;BME280;35061;47.664;9.166;2022-07-29T13:45:00;101503.27;;;24.18;63.73
18755;BME280;35061;47.664;9.166;2022-07-29T13:47:28;101497.77;;;24.15;63.77